LGBL

Details ICAO LGBL (VOL)
Name NEA ANCHIALOS
Region Greece
Timezone Europe/Athens (UTC+2.0)
Plans Departing 42
Arriving 12
Stats Elevation 83 ft / 25 m (AMSL)
Location 39.219486° 22.794466°
Runways 1
Magnetic Variation 4.464° E
Sunrise 2017-12-15 05:42:33 UTC / 2017-12-15 07:42:33 Local
Sunset 2017-12-15 15:08:07 UTC / 2017-12-15 17:08:07 Local
Advertisement - Login to hide

Runways

ID Width Length Bearing (true) Bearing (mag) Surface Threshold Offset Overrun Length
08 148 ft / 45 m 9,033 ft / 2,753 m 81.43° 76.97° Asphalt 0 ft / 0 m 1,020 ft / 311 m
26 148 ft / 45 m 9,033 ft / 2,753 m 261.45° 256.99° Asphalt 0 ft / 0 m 960 ft / 293 m

Map

Weather


0- 5 10 15 20 25 30 35+ Temperature / ° C

Clouds and Precipitation
Forecast for 2017-12-15 18:00 UTC. Updated 32 minutes ago

Ground ~20,000 ft ~40,000 ft Winds

METAR

LGBL 151720Z 31004KT 9999 FEW070 15/04 Q1012

TAF

Not found

Frequencies

Tower 122.10 MHz ALMIROS TWR
Approach 122.10 MHz ALMIROS APP
Approach 120.35 MHz ALMIROS APP
Warning: Do not use this data for real-world aviation or navigation. No guarantee of current accuracy is given.